sensor_id;sensor_type;location;lat;lon;timestamp;P1;durP1;ratioP1;P2;durP2;ratioP2
5684;SDS011;2865;53.114;9.130;2023-04-03T00:01:44;5.17;;;4.10;;
5684;SDS011;2865;53.114;9.130;2023-04-03T00:04:09;4.67;;;4.27;;
5684;SDS011;2865;53.114;9.130;2023-04-03T00:06:35;4.60;;;4.20;;
5684;SDS011;2865;53.114;9.130;2023-04-03T00:09:01;4.50;;;3.67;;
5684;SDS011;2865;53.114;9.130;2023-04-03T00:11:25;3.50;;;3.20;;
5684;SDS011;2865;53.114;9.130;2023-04-03T00:13:51;9.50;;;3.40;;
5684;SDS011;2865;53.114;9.130;2023-04-03T00:16:16;7.90;;;3.80;;
5684;SDS011;2865;53.114;9.130;2023-04-03T00:18:42;3.47;;;3.27;;
5684;SDS011;2865;53.114;9.130;2023-04-03T00:21:07;3.83;;;3.57;;
5684;SDS011;2865;53.114;9.130;2023-04-03T00:23:33;6.00;;;4.03;;
5684;SDS011;2865;53.114;9.130;2023-04-03T00:25:58;5.60;;;3.50;;
5684;SDS011;2865;53.114;9.130;2023-04-03T00:28:23;5.80;;;3.90;;
5684;SDS011;2865;53.114;9.130;2023-04-03T00:30:49;4.23;;;3.93;;
5684;SDS011;2865;53.114;9.130;2023-04-03T00:33:14;6.23;;;4.53;;
5684;SDS011;2865;53.114;9.130;2023-04-03T00:35:40;5.60;;;4.30;;
5684;SDS011;2865;53.114;9.130;2023-04-03T00:38:05;5.60;;;3.97;;
5684;SDS011;2865;53.114;9.130;2023-04-03T00:40:34;4.13;;;3.67;;
5684;SDS011;2865;53.114;9.130;2023-04-03T00:42:58;9.23;;;3.85;;
5684;SDS011;2865;53.114;9.130;2023-04-03T00:45:32;4.17;;;3.80;;
5684;SDS011;2865;53.114;9.130;2023-04-03T00:47:56;4.63;;;4.23;;
5684;SDS011;2865;53.114;9.130;2023-04-03T00:50:21;4.60;;;3.80;;
5684;SDS011;2865;53.114;9.130;2023-04-03T00:52:47;3.60;;;3.40;;
5684;SDS011;2865;53.114;9.130;2023-04-03T00:55:12;4.10;;;3.80;;
5684;SDS011;2865;53.114;9.130;2023-04-03T00:57:38;4.90;;;4.50;;
5684;SDS011;2865;53.114;9.130;2023-04-03T01:00:05;3.87;;;3.57;;
5684;SDS011;2865;53.114;9.130;2023-04-03T01:02:31;6.60;;;3.70;;
5684;SDS011;2865;53.114;9.130;2023-04-03T01:04:56;3.90;;;3.60;;
5684;SDS011;2865;53.114;9.130;2023-04-03T01:07:23;9.80;;;6.83;;
5684;SDS011;2865;53.114;9.130;2023-04-03T01:09:48;8.83;;;3.97;;
5684;SDS011;2865;53.114;9.130;2023-04-03T01:12:15;4.73;;;3.50;;
5684;SDS011;2865;53.114;9.130;2023-04-03T01:14:39;5.57;;;4.00;;
5684;SDS011;2865;53.114;9.130;2023-04-03T01:17:23;6.43;;;4.67;;
5684;SDS011;2865;53.114;9.130;2023-04-03T01:19:30;4.33;;;3.97;;
5684;SDS011;2865;53.114;9.130;2023-04-03T01:22:04;4.53;;;4.23;;
5684;SDS011;2865;53.114;9.130;2023-04-03T01:24:32;3.60;;;3.40;;
5684;SDS011;2865;53.114;9.130;2023-04-03T01:26:55;6.27;;;3.83;;
5684;SDS011;2865;53.114;9.130;2023-04-03T01:29:20;6.00;;;4.00;;
5684;SDS011;2865;53.114;9.130;2023-04-03T01:31:47;9.13;;;3.97;;
5684;SDS011;2865;53.114;9.130;2023-04-03T01:34:11;4.10;;;3.70;;
5684;SDS011;2865;53.114;9.130;2023-04-03T01:36:37;5.90;;;4.17;;
5684;SDS011;2865;53.114;9.130;2023-04-03T01:39:02;6.80;;;3.80;;
5684;SDS011;2865;53.114;9.130;2023-04-03T01:41:28;4.37;;;3.63;;
5684;SDS011;2865;53.114;9.130;2023-04-03T01:43:53;12.53;;;4.43;;
5684;SDS011;2865;53.114;9.130;2023-04-03T01:46:18;7.27;;;4.23;;
5684;SDS011;2865;53.114;9.130;2023-04-03T01:48:44;8.63;;;4.57;;
5684;SDS011;2865;53.114;9.130;2023-04-03T01:51:09;7.10;;;4.23;;
5684;SDS011;2865;53.114;9.130;2023-04-03T01:53:35;7.23;;;4.00;;
5684;SDS011;2865;53.114;9.130;2023-04-03T01:56:00;6.37;;;4.83;;
5684;SDS011;2865;53.114;9.130;2023-04-03T01:58:26;5.10;;;4.00;;
5684;SDS011;2865;53.114;9.130;2023-04-03T02:00:51;6.07;;;3.60;;
5684;SDS011;2865;53.114;9.130;2023-04-03T02:03:17;6.33;;;4.30;;
5684;SDS011;2865;53.114;9.130;2023-04-03T02:05:42;5.07;;;4.13;;
5684;SDS011;2865;53.114;9.130;2023-04-03T02:08:08;4.50;;;4.10;;
5684;SDS011;2865;53.114;9.130;2023-04-03T02:10:33;7.80;;;4.30;;
5684;SDS011;2865;53.114;9.130;2023-04-03T02:12:59;6.57;;;3.83;;
5684;SDS011;2865;53.114;9.130;2023-04-03T02:15:24;4.20;;;3.77;;
5684;SDS011;2865;53.114;9.130;2023-04-03T02:17:50;5.77;;;4.00;;
5684;SDS011;2865;53.114;9.130;2023-04-03T02:20:15;4.50;;;4.10;;
5684;SDS011;2865;53.114;9.130;2023-04-03T02:22:41;12.43;;;4.37;;
5684;SDS011;2865;53.114;9.130;2023-04-03T02:25:07;5.33;;;3.93;;
5684;SDS011;2865;53.114;9.130;2023-04-03T02:27:33;9.43;;;4.80;;
5684;SDS011;2865;53.114;9.130;2023-04-03T02:29:58;4.73;;;4.10;;
5684;SDS011;2865;53.114;9.130;2023-04-03T02:32:24;5.10;;;3.73;;
5684;SDS011;2865;53.114;9.130;2023-04-03T02:34:49;4.90;;;3.57;;
5684;SDS011;2865;53.114;9.130;2023-04-03T02:37:14;7.60;;;4.23;;
5684;SDS011;2865;53.114;9.130;2023-04-03T02:39:40;3.97;;;3.57;;
5684;SDS011;2865;53.114;9.130;2023-04-03T02:42:05;7.53;;;6.70;;
5684;SDS011;2865;53.114;9.130;2023-04-03T02:44:31;3.90;;;3.60;;
5684;SDS011;2865;53.114;9.130;2023-04-03T02:46:56;4.30;;;3.80;;
5684;SDS011;2865;53.114;9.130;2023-04-03T02:49:21;6.63;;;4.20;;
5684;SDS011;2865;53.114;9.130;2023-04-03T02:51:47;4.43;;;3.90;;
5684;SDS011;2865;53.114;9.130;2023-04-03T02:54:12;4.40;;;4.00;;
5684;SDS011;2865;53.114;9.130;2023-04-03T02:56:38;5.97;;;3.67;;
5684;SDS011;2865;53.114;9.130;2023-04-03T02:59:04;6.93;;;4.30;;
5684;SDS011;2865;53.114;9.130;2023-04-03T03:01:29;4.10;;;3.73;;
5684;SDS011;2865;53.114;9.130;2023-04-03T03:03:55;8.20;;;4.00;;
5684;SDS011;2865;53.114;9.130;2023-04-03T03:06:20;8.97;;;4.00;;
5684;SDS011;2865;53.114;9.130;2023-04-03T03:08:45;7.20;;;3.87;;
5684;SDS011;2865;53.114;9.130;2023-04-03T03:11:11;5.80;;;3.87;;
5684;SDS011;2865;53.114;9.130;2023-04-03T03:13:37;6.40;;;3.67;;
5684;SDS011;2865;53.114;9.130;2023-04-03T03:16:02;3.73;;;3.53;;
5684;SDS011;2865;53.114;9.130;2023-04-03T03:18:27;4.10;;;3.70;;
5684;SDS011;2865;53.114;9.130;2023-04-03T03:20:53;5.03;;;3.90;;
5684;SDS011;2865;53.114;9.130;2023-04-03T03:23:18;6.00;;;4.30;;
5684;SDS011;2865;53.114;9.130;2023-04-03T03:25:44;5.20;;;3.50;;
5684;SDS011;2865;53.114;9.130;2023-04-03T03:28:09;4.70;;;3.70;;
5684;SDS011;2865;53.114;9.130;2023-04-03T03:30:34;13.40;;;4.73;;
5684;SDS011;2865;53.114;9.130;2023-04-03T03:33:00;11.47;;;4.30;;
5684;SDS011;2865;53.114;9.130;2023-04-03T03:35:25;7.03;;;4.60;;
5684;SDS011;2865;53.114;9.130;2023-04-03T03:37:51;10.53;;;4.20;;
5684;SDS011;2865;53.114;9.130;2023-04-03T03:40:16;12.07;;;4.47;;
5684;SDS011;2865;53.114;9.130;2023-04-03T03:42:42;9.30;;;3.87;;
5684;SDS011;2865;53.114;9.130;2023-04-03T03:45:07;4.27;;;3.97;;
5684;SDS011;2865;53.114;9.130;2023-04-03T03:47:34;6.67;;;4.20;;
5684;SDS011;2865;53.114;9.130;2023-04-03T03:49:59;3.83;;;3.53;;
5684;SDS011;2865;53.114;9.130;2023-04-03T03:52:25;5.57;;;4.07;;
5684;SDS011;2865;53.114;9.130;2023-04-03T03:54:50;4.97;;;3.53;;
5684;SDS011;2865;53.114;9.130;2023-04-03T03:57:15;4.10;;;3.70;;
5684;SDS011;2865;53.114;9.130;2023-04-03T03:59:41;4.27;;;3.97;;
5684;SDS011;2865;53.114;9.130;2023-04-03T04:02:07;8.53;;;3.90;;
5684;SDS011;2865;53.114;9.130;2023-04-03T04:04:32;5.03;;;4.40;;
5684;SDS011;2865;53.114;9.130;2023-04-03T04:06:57;6.23;;;4.00;;
5684;SDS011;2865;53.114;9.130;2023-04-03T04:09:23;4.40;;;4.10;;
5684;SDS011;2865;53.114;9.130;2023-04-03T04:11:48;4.27;;;3.63;;
5684;SDS011;2865;53.114;9.130;2023-04-03T04:14:14;4.50;;;4.03;;
5684;SDS011;2865;53.114;9.130;2023-04-03T04:16:39;4.53;;;3.83;;
5684;SDS011;2865;53.114;9.130;2023-04-03T04:19:05;6.07;;;4.03;;
5684;SDS011;2865;53.114;9.130;2023-04-03T04:21:30;3.90;;;3.60;;
5684;SDS011;2865;53.114;9.130;2023-04-03T04:23:55;6.73;;;4.03;;
5684;SDS011;2865;53.114;9.130;2023-04-03T04:26:21;5.50;;;4.23;;
5684;SDS011;2865;53.114;9.130;2023-04-03T04:28:46;6.50;;;4.30;;
5684;SDS011;2865;53.114;9.130;2023-04-03T04:31:11;4.13;;;3.90;;
5684;SDS011;2865;53.114;9.130;2023-04-03T04:33:37;8.40;;;4.37;;
5684;SDS011;2865;53.114;9.130;2023-04-03T04:36:02;4.70;;;4.03;;
5684;SDS011;2865;53.114;9.130;2023-04-03T04:38:28;3.80;;;3.47;;
5684;SDS011;2865;53.114;9.130;2023-04-03T04:40:53;4.90;;;4.00;;
5684;SDS011;2865;53.114;9.130;2023-04-03T04:43:18;4.17;;;3.77;;
5684;SDS011;2865;53.114;9.130;2023-04-03T04:45:44;7.80;;;4.80;;
5684;SDS011;2865;53.114;9.130;2023-04-03T04:48:09;5.27;;;4.10;;
5684;SDS011;2865;53.114;9.130;2023-04-03T04:50:35;4.63;;;4.30;;
5684;SDS011;2865;53.114;9.130;2023-04-03T04:53:00;8.63;;;3.83;;
5684;SDS011;2865;53.114;9.130;2023-04-03T04:55:25;8.83;;;4.20;;
5684;SDS011;2865;53.114;9.130;2023-04-03T04:57:51;4.67;;;4.23;;
5684;SDS011;2865;53.114;9.130;2023-04-03T05:00:17;6.87;;;4.03;;
5684;SDS011;2865;53.114;9.130;2023-04-03T05:02:43;5.03;;;4.53;;
5684;SDS011;2865;53.114;9.130;2023-04-03T05:05:08;10.93;;;4.33;;
5684;SDS011;2865;53.114;9.130;2023-04-03T05:07:34;13.53;;;4.20;;
5684;SDS011;2865;53.114;9.130;2023-04-03T05:09:59;4.30;;;4.00;;
5684;SDS011;2865;53.114;9.130;2023-04-03T05:12:25;4.40;;;3.70;;
5684;SDS011;2865;53.114;9.130;2023-04-03T05:14:50;6.13;;;3.90;;
5684;SDS011;2865;53.114;9.130;2023-04-03T05:17:16;7.00;;;4.00;;
5684;SDS011;2865;53.114;9.130;2023-04-03T05:22:07;7.03;;;4.00;;
5684;SDS011;2865;53.114;9.130;2023-04-03T05:24:33;6.23;;;4.30;;
5684;SDS011;2865;53.114;9.130;2023-04-03T05:26:59;8.43;;;3.97;;
5684;SDS011;2865;53.114;9.130;2023-04-03T05:29:24;3.93;;;3.63;;
5684;SDS011;2865;53.114;9.130;2023-04-03T05:31:49;9.33;;;3.97;;
5684;SDS011;2865;53.114;9.130;2023-04-03T05:34:15;7.83;;;4.33;;
5684;SDS011;2865;53.114;9.130;2023-04-03T05:36:41;4.40;;;4.17;;
5684;SDS011;2865;53.114;9.130;2023-04-03T05:39:06;5.70;;;4.40;;
5684;SDS011;2865;53.114;9.130;2023-04-03T05:41:31;10.83;;;3.90;;
5684;SDS011;2865;53.114;9.130;2023-04-03T05:43:57;7.83;;;5.00;;
5684;SDS011;2865;53.114;9.130;2023-04-03T05:46:22;10.90;;;4.63;;
5684;SDS011;2865;53.114;9.130;2023-04-03T05:48:48;7.73;;;3.93;;
5684;SDS011;2865;53.114;9.130;2023-04-03T05:51:14;7.93;;;3.67;;
5684;SDS011;2865;53.114;9.130;2023-04-03T05:53:38;8.20;;;4.00;;
5684;SDS011;2865;53.114;9.130;2023-04-03T05:56:04;7.53;;;4.20;;
5684;SDS011;2865;53.114;9.130;2023-04-03T05:58:29;4.90;;;4.07;;
5684;SDS011;2865;53.114;9.130;2023-04-03T06:00:55;4.13;;;3.83;;
5684;SDS011;2865;53.114;9.130;2023-04-03T06:03:20;5.80;;;3.60;;
5684;SDS011;2865;53.114;9.130;2023-04-03T06:05:46;11.80;;;5.30;;
5684;SDS011;2865;53.114;9.130;2023-04-03T06:08:11;4.97;;;4.17;;
5684;SDS011;2865;53.114;9.130;2023-04-03T06:10:37;9.03;;;4.07;;
5684;SDS011;2865;53.114;9.130;2023-04-03T06:13:03;5.37;;;3.70;;
5684;SDS011;2865;53.114;9.130;2023-04-03T06:15:28;5.33;;;3.67;;
5684;SDS011;2865;53.114;9.130;2023-04-03T06:17:53;5.37;;;3.40;;
5684;SDS011;2865;53.114;9.130;2023-04-03T06:20:19;4.17;;;3.73;;
5684;SDS011;2865;53.114;9.130;2023-04-03T06:22:44;7.00;;;3.97;;
5684;SDS011;2865;53.114;9.130;2023-04-03T06:25:09;8.23;;;3.60;;
5684;SDS011;2865;53.114;9.130;2023-04-03T06:27:35;3.90;;;3.60;;
5684;SDS011;2865;53.114;9.130;2023-04-03T06:30:01;3.73;;;3.43;;
5684;SDS011;2865;53.114;9.130;2023-04-03T06:32:26;4.33;;;3.37;;
5684;SDS011;2865;53.114;9.130;2023-04-03T06:34:51;7.70;;;4.00;;
5684;SDS011;2865;53.114;9.130;2023-04-03T06:37:17;6.90;;;3.47;;
5684;SDS011;2865;53.114;9.130;2023-04-03T06:39:42;5.60;;;4.17;;
5684;SDS011;2865;53.114;9.130;2023-04-03T06:42:08;4.03;;;3.63;;
5684;SDS011;2865;53.114;9.130;2023-04-03T06:44:33;4.60;;;3.20;;
5684;SDS011;2865;53.114;9.130;2023-04-03T06:46:59;3.70;;;3.40;;
5684;SDS011;2865;53.114;9.130;2023-04-03T06:49:25;8.10;;;3.50;;
5684;SDS011;2865;53.114;9.130;2023-04-03T06:51:50;4.20;;;3.40;;
5684;SDS011;2865;53.114;9.130;2023-04-03T06:54:16;5.83;;;3.47;;
5684;SDS011;2865;53.114;9.130;2023-04-03T06:56:41;7.17;;;3.63;;
5684;SDS011;2865;53.114;9.130;2023-04-03T06:59:07;7.07;;;3.30;;
5684;SDS011;2865;53.114;9.130;2023-04-03T07:01:32;5.43;;;3.27;;
5684;SDS011;2865;53.114;9.130;2023-04-03T07:03:58;3.60;;;3.27;;
5684;SDS011;2865;53.114;9.130;2023-04-03T07:06:23;3.40;;;3.17;;
5684;SDS011;2865;53.114;9.130;2023-04-03T07:08:48;6.40;;;3.27;;
5684;SDS011;2865;53.114;9.130;2023-04-03T07:11:14;6.63;;;3.60;;
5684;SDS011;2865;53.114;9.130;2023-04-03T07:13:39;6.77;;;2.60;;
5684;SDS011;2865;53.114;9.130;2023-04-03T07:16:05;9.97;;;4.23;;
5684;SDS011;2865;53.114;9.130;2023-04-03T07:18:32;3.13;;;2.80;;
5684;SDS011;2865;53.114;9.130;2023-04-03T07:23:29;4.00;;;3.17;;
5684;SDS011;2865;53.114;9.130;2023-04-03T07:25:55;4.20;;;3.20;;
5684;SDS011;2865;53.114;9.130;2023-04-03T07:28:20;4.03;;;3.13;;
5684;SDS011;2865;53.114;9.130;2023-04-03T07:30:47;8.57;;;2.97;;
5684;SDS011;2865;53.114;9.130;2023-04-03T07:33:13;3.70;;;3.10;;
5684;SDS011;2865;53.114;9.130;2023-04-03T07:35:37;3.80;;;3.03;;
5684;SDS011;2865;53.114;9.130;2023-04-03T07:38:03;5.90;;;2.87;;
5684;SDS011;2865;53.114;9.130;2023-04-03T07:40:28;8.40;;;2.93;;
5684;SDS011;2865;53.114;9.130;2023-04-03T07:42:54;6.40;;;2.93;;
5684;SDS011;2865;53.114;9.130;2023-04-03T07:45:19;4.20;;;2.90;;
5684;SDS011;2865;53.114;9.130;2023-04-03T07:47:44;6.97;;;3.30;;
5684;SDS011;2865;53.114;9.130;2023-04-03T07:50:10;3.43;;;2.90;;
5684;SDS011;2865;53.114;9.130;2023-04-03T07:52:35;2.40;;;2.30;;
5684;SDS011;2865;53.114;9.130;2023-04-03T07:55:01;6.23;;;2.87;;
5684;SDS011;2865;53.114;9.130;2023-04-03T07:57:26;5.97;;;3.00;;
5684;SDS011;2865;53.114;9.130;2023-04-03T07:59:51;2.83;;;2.50;;
5684;SDS011;2865;53.114;9.130;2023-04-03T08:02:17;2.90;;;2.70;;
5684;SDS011;2865;53.114;9.130;2023-04-03T08:04:42;2.47;;;2.27;;
5684;SDS011;2865;53.114;9.130;2023-04-03T08:07:07;4.20;;;2.73;;
5684;SDS011;2865;53.114;9.130;2023-04-03T08:09:33;3.13;;;2.40;;
5684;SDS011;2865;53.114;9.130;2023-04-03T08:11:58;5.53;;;2.40;;
5684;SDS011;2865;53.114;9.130;2023-04-03T08:14:24;2.10;;;2.00;;
5684;SDS011;2865;53.114;9.130;2023-04-03T08:16:49;2.40;;;2.00;;
5684;SDS011;2865;53.114;9.130;2023-04-03T08:19:15;1.97;;;1.87;;
5684;SDS011;2865;53.114;9.130;2023-04-03T08:21:41;2.10;;;2.00;;
5684;SDS011;2865;53.114;9.130;2023-04-03T08:24:07;4.50;;;2.50;;
5684;SDS011;2865;53.114;9.130;2023-04-03T08:26:32;2.10;;;2.00;;
5684;SDS011;2865;53.114;9.130;2023-04-03T08:28:58;3.37;;;3.07;;
5684;SDS011;2865;53.114;9.130;2023-04-03T08:31:23;5.47;;;2.77;;
5684;SDS011;2865;53.114;9.130;2023-04-03T08:33:48;8.27;;;2.27;;
5684;SDS011;2865;53.114;9.130;2023-04-03T08:36:23;3.43;;;2.10;;
5684;SDS011;2865;53.114;9.130;2023-04-03T08:38:49;2.70;;;2.30;;
5684;SDS011;2865;53.114;9.130;2023-04-03T08:41:15;4.60;;;2.60;;
5684;SDS011;2865;53.114;9.130;2023-04-03T08:46:19;2.77;;;1.97;;
5684;SDS011;2865;53.114;9.130;2023-04-03T08:48:44;2.40;;;2.13;;
5684;SDS011;2865;53.114;9.130;2023-04-03T08:51:12;6.07;;;2.37;;
5684;SDS011;2865;53.114;9.130;2023-04-03T08:53:36;3.33;;;2.60;;
5684;SDS011;2865;53.114;9.130;2023-04-03T08:56:02;3.47;;;2.00;;
5684;SDS011;2865;53.114;9.130;2023-04-03T08:58:28;2.43;;;2.00;;
5684;SDS011;2865;53.114;9.130;2023-04-03T09:00:58;2.10;;;2.00;;
5684;SDS011;2865;53.114;9.130;2023-04-03T09:03:23;2.10;;;1.90;;
5684;SDS011;2865;53.114;9.130;2023-04-03T09:08:24;4.63;;;2.13;;
5684;SDS011;2865;53.114;9.130;2023-04-03T09:10:51;2.50;;;2.30;;
5684;SDS011;2865;53.114;9.130;2023-04-03T09:13:49;2.87;;;2.07;;
5684;SDS011;2865;53.114;9.130;2023-04-03T09:15:58;1.93;;;1.83;;
5684;SDS011;2865;53.114;9.130;2023-04-03T09:18:26;2.50;;;2.30;;
5684;SDS011;2865;53.114;9.130;2023-04-03T09:20:54;3.33;;;2.67;;
5684;SDS011;2865;53.114;9.130;2023-04-03T09:23:31;3.03;;;2.63;;
5684;SDS011;2865;53.114;9.130;2023-04-03T09:26:02;3.60;;;2.00;;
5684;SDS011;2865;53.114;9.130;2023-04-03T09:28:26;3.27;;;1.83;;
5684;SDS011;2865;53.114;9.130;2023-04-03T09:30:52;6.13;;;2.37;;
5684;SDS011;2865;53.114;9.130;2023-04-03T09:33:17;3.60;;;2.20;;
5684;SDS011;2865;53.114;9.130;2023-04-03T09:35:43;3.33;;;2.03;;
5684;SDS011;2865;53.114;9.130;2023-04-03T09:38:16;2.37;;;2.17;;
5684;SDS011;2865;53.114;9.130;2023-04-03T09:40:43;1.87;;;1.77;;
5684;SDS011;2865;53.114;9.130;2023-04-03T09:46:15;3.13;;;2.30;;
5684;SDS011;2865;53.114;9.130;2023-04-03T09:48:23;2.97;;;1.90;;
5684;SDS011;2865;53.114;9.130;2023-04-03T09:50:58;2.40;;;2.10;;
5684;SDS011;2865;53.114;9.130;2023-04-03T09:53:26;2.20;;;2.00;;
5684;SDS011;2865;53.114;9.130;2023-04-03T09:55:51;2.50;;;1.90;;
5684;SDS011;2865;53.114;9.130;2023-04-03T09:58:25;2.60;;;1.90;;
5684;SDS011;2865;53.114;9.130;2023-04-03T10:00:54;2.87;;;2.00;;
5684;SDS011;2865;53.114;9.130;2023-04-03T10:03:23;6.53;;;2.10;;
5684;SDS011;2865;53.114;9.130;2023-04-03T10:06:03;2.20;;;2.00;;
5684;SDS011;2865;53.114;9.130;2023-04-03T10:08:29;4.13;;;2.13;;
5684;SDS011;2865;53.114;9.130;2023-04-03T10:13:49;2.50;;;2.00;;
5684;SDS011;2865;53.114;9.130;2023-04-03T10:16:12;1.60;;;1.50;;
5684;SDS011;2865;53.114;9.130;2023-04-03T10:18:44;3.17;;;2.10;;
5684;SDS011;2865;53.114;9.130;2023-04-03T10:21:13;1.73;;;1.63;;
5684;SDS011;2865;53.114;9.130;2023-04-03T10:23:39;2.20;;;2.00;;
5684;SDS011;2865;53.114;9.130;2023-04-03T10:26:07;3.67;;;2.10;;
5684;SDS011;2865;53.114;9.130;2023-04-03T10:29:02;1.47;;;1.37;;
5684;SDS011;2865;53.114;9.130;2023-04-03T10:34:18;3.73;;;2.00;;
5684;SDS011;2865;53.114;9.130;2023-04-03T10:36:46;1.80;;;1.70;;
5684;SDS011;2865;53.114;9.130;2023-04-03T10:39:30;2.37;;;1.97;;
5684;SDS011;2865;53.114;9.130;2023-04-03T10:44:58;3.00;;;1.80;;
5684;SDS011;2865;53.114;9.130;2023-04-03T10:50:43;1.80;;;1.60;;
5684;SDS011;2865;53.114;9.130;2023-04-03T10:53:14;1.83;;;1.73;;
5684;SDS011;2865;53.114;9.130;2023-04-03T10:55:52;4.00;;;2.57;;
5684;SDS011;2865;53.114;9.130;2023-04-03T10:58:24;2.13;;;1.90;;
5684;SDS011;2865;53.114;9.130;2023-04-03T11:00:47;2.40;;;1.93;;
5684;SDS011;2865;53.114;9.130;2023-04-03T11:03:14;7.07;;;3.83;;
5684;SDS011;2865;53.114;9.130;2023-04-03T11:05:42;2.23;;;1.80;;
5684;SDS011;2865;53.114;9.130;2023-04-03T11:08:21;3.07;;;2.00;;
5684;SDS011;2865;53.114;9.130;2023-04-03T11:10:49;3.10;;;1.80;;
5684;SDS011;2865;53.114;9.130;2023-04-03T11:13:17;2.00;;;1.90;;
5684;SDS011;2865;53.114;9.130;2023-04-03T11:15:43;5.40;;;2.27;;
5684;SDS011;2865;53.114;9.130;2023-04-03T11:18:10;3.53;;;2.03;;
5684;SDS011;2865;53.114;9.130;2023-04-03T11:20:35;4.70;;;3.70;;
5684;SDS011;2865;53.114;9.130;2023-04-03T11:23:01;3.13;;;1.97;;
5684;SDS011;2865;53.114;9.130;2023-04-03T11:25:25;4.03;;;2.17;;
5684;SDS011;2865;53.114;9.130;2023-04-03T11:27:55;3.07;;;2.17;;
5684;SDS011;2865;53.114;9.130;2023-04-03T11:30:21;2.73;;;2.13;;
5684;SDS011;2865;53.114;9.130;2023-04-03T11:33:07;4.47;;;2.20;;
5684;SDS011;2865;53.114;9.130;2023-04-03T11:35:47;4.60;;;2.20;;
5684;SDS011;2865;53.114;9.130;2023-04-03T11:38:14;2.90;;;1.87;;
5684;SDS011;2865;53.114;9.130;2023-04-03T11:40:36;3.57;;;2.07;;
5684;SDS011;2865;53.114;9.130;2023-04-03T11:43:07;2.67;;;1.73;;
5684;SDS011;2865;53.114;9.130;2023-04-03T11:45:50;2.17;;;2.00;;
5684;SDS011;2865;53.114;9.130;2023-04-03T11:48:41;10.87;;;2.20;;
5684;SDS011;2865;53.114;9.130;2023-04-03T11:51:00;2.30;;;2.10;;
5684;SDS011;2865;53.114;9.130;2023-04-03T11:53:30;3.90;;;2.03;;
5684;SDS011;2865;53.114;9.130;2023-04-03T11:55:55;3.20;;;2.20;;
5684;SDS011;2865;53.114;9.130;2023-04-03T11:58:23;2.13;;;2.03;;
5684;SDS011;2865;53.114;9.130;2023-04-03T12:00:56;2.90;;;2.20;;
5684;SDS011;2865;53.114;9.130;2023-04-03T12:09:22;3.03;;;2.20;;
5684;SDS011;2865;53.114;9.130;2023-04-03T12:11:44;3.77;;;2.07;;
5684;SDS011;2865;53.114;9.130;2023-04-03T12:14:14;2.17;;;1.97;;
5684;SDS011;2865;53.114;9.130;2023-04-03T12:16:45;2.17;;;1.93;;
5684;SDS011;2865;53.114;9.130;2023-04-03T12:19:30;2.53;;;2.17;;
5684;SDS011;2865;53.114;9.130;2023-04-03T12:22:10;3.47;;;2.47;;
5684;SDS011;2865;53.114;9.130;2023-04-03T12:24:35;2.30;;;2.10;;
5684;SDS011;2865;53.114;9.130;2023-04-03T12:27:05;2.50;;;2.00;;
5684;SDS011;2865;53.114;9.130;2023-04-03T12:29:37;2.50;;;2.23;;
5684;SDS011;2865;53.114;9.130;2023-04-03T12:35:05;2.40;;;2.20;;
5684;SDS011;2865;53.114;9.130;2023-04-03T12:40:31;2.87;;;2.10;;
5684;SDS011;2865;53.114;9.130;2023-04-03T12:43:10;4.00;;;2.37;;
5684;SDS011;2865;53.114;9.130;2023-04-03T12:45:51;3.53;;;2.27;;
5684;SDS011;2865;53.114;9.130;2023-04-03T12:48:15;2.30;;;2.10;;
5684;SDS011;2865;53.114;9.130;2023-04-03T12:50:40;3.80;;;2.10;;
5684;SDS011;2865;53.114;9.130;2023-04-03T12:53:06;2.63;;;2.33;;
5684;SDS011;2865;53.114;9.130;2023-04-03T12:55:31;2.87;;;2.00;;
5684;SDS011;2865;53.114;9.130;2023-04-03T12:57:57;4.10;;;2.90;;
5684;SDS011;2865;53.114;9.130;2023-04-03T13:02:55;4.00;;;2.10;;
5684;SDS011;2865;53.114;9.130;2023-04-03T13:05:21;2.47;;;1.90;;
5684;SDS011;2865;53.114;9.130;2023-04-03T13:07:50;3.90;;;2.10;;
5684;SDS011;2865;53.114;9.130;2023-04-03T13:10:15;2.13;;;1.90;;
5684;SDS011;2865;53.114;9.130;2023-04-03T13:12:45;2.43;;;2.10;;
5684;SDS011;2865;53.114;9.130;2023-04-03T13:15:13;2.63;;;2.10;;
5684;SDS011;2865;53.114;9.130;2023-04-03T13:17:38;6.83;;;2.20;;
5684;SDS011;2865;53.114;9.130;2023-04-03T13:22:36;3.47;;;2.40;;
5684;SDS011;2865;53.114;9.130;2023-04-03T13:25:03;3.20;;;2.13;;
5684;SDS011;2865;53.114;9.130;2023-04-03T13:27:28;3.80;;;2.20;;
5684;SDS011;2865;53.114;9.130;2023-04-03T13:29:53;6.10;;;2.10;;
5684;SDS011;2865;53.114;9.130;2023-04-03T13:32:21;3.60;;;2.10;;
5684;SDS011;2865;53.114;9.130;2023-04-03T13:34:45;3.27;;;2.00;;
5684;SDS011;2865;53.114;9.130;2023-04-03T13:42:26;2.63;;;2.00;;
5684;SDS011;2865;53.114;9.130;2023-04-03T13:45:06;2.57;;;2.20;;
5684;SDS011;2865;53.114;9.130;2023-04-03T13:47:17;2.30;;;2.10;;
5684;SDS011;2865;53.114;9.130;2023-04-03T13:49:43;5.97;;;2.50;;
5684;SDS011;2865;53.114;9.130;2023-04-03T13:54:43;2.20;;;2.00;;
5684;SDS011;2865;53.114;9.130;2023-04-03T13:57:13;11.07;;;2.47;;
5684;SDS011;2865;53.114;9.130;2023-04-03T13:59:38;3.80;;;2.07;;
5684;SDS011;2865;53.114;9.130;2023-04-03T14:02:10;3.07;;;2.00;;
5684;SDS011;2865;53.114;9.130;2023-04-03T14:04:44;3.13;;;2.43;;
5684;SDS011;2865;53.114;9.130;2023-04-03T14:06:58;2.00;;;1.77;;
5684;SDS011;2865;53.114;9.130;2023-04-03T14:09:25;2.73;;;2.30;;
5684;SDS011;2865;53.114;9.130;2023-04-03T14:11:49;4.90;;;2.07;;
5684;SDS011;2865;53.114;9.130;2023-04-03T14:14:16;4.37;;;2.23;;
5684;SDS011;2865;53.114;9.130;2023-04-03T14:16:41;3.47;;;2.10;;
5684;SDS011;2865;53.114;9.130;2023-04-03T14:19:05;5.00;;;2.60;;
5684;SDS011;2865;53.114;9.130;2023-04-03T14:21:31;2.67;;;2.50;;
5684;SDS011;2865;53.114;9.130;2023-04-03T14:23:56;2.77;;;1.80;;
5684;SDS011;2865;53.114;9.130;2023-04-03T14:26:23;3.10;;;1.87;;
5684;SDS011;2865;53.114;9.130;2023-04-03T14:28:48;2.00;;;1.80;;
5684;SDS011;2865;53.114;9.130;2023-04-03T14:31:13;2.40;;;2.20;;
5684;SDS011;2865;53.114;9.130;2023-04-03T14:33:38;1.97;;;1.87;;
5684;SDS011;2865;53.114;9.130;2023-04-03T14:36:11;2.83;;;1.93;;
5684;SDS011;2865;53.114;9.130;2023-04-03T14:38:36;2.20;;;2.10;;
5684;SDS011;2865;53.114;9.130;2023-04-03T14:41:01;2.40;;;2.00;;
5684;SDS011;2865;53.114;9.130;2023-04-03T14:43:27;3.07;;;2.87;;
5684;SDS011;2865;53.114;9.130;2023-04-03T14:45:52;2.70;;;2.50;;
5684;SDS011;2865;53.114;9.130;2023-04-03T14:48:20;2.90;;;2.20;;
5684;SDS011;2865;53.114;9.130;2023-04-03T14:50:43;4.00;;;2.20;;
5684;SDS011;2865;53.114;9.130;2023-04-03T14:53:09;2.60;;;2.07;;
5684;SDS011;2865;53.114;9.130;2023-04-03T14:55:35;2.17;;;2.00;;
5684;SDS011;2865;53.114;9.130;2023-04-03T14:58:00;2.17;;;1.90;;
5684;SDS011;2865;53.114;9.130;2023-04-03T15:00:26;2.20;;;2.10;;
5684;SDS011;2865;53.114;9.130;2023-04-03T15:02:51;2.03;;;1.80;;
5684;SDS011;2865;53.114;9.130;2023-04-03T15:05:16;3.50;;;2.07;;
5684;SDS011;2865;53.114;9.130;2023-04-03T15:07:45;2.30;;;2.20;;
5684;SDS011;2865;53.114;9.130;2023-04-03T15:10:16;2.27;;;2.13;;
5684;SDS011;2865;53.114;9.130;2023-04-03T15:12:42;4.57;;;1.80;;
5684;SDS011;2865;53.114;9.130;2023-04-03T15:15:07;1.93;;;1.83;;
5684;SDS011;2865;53.114;9.130;2023-04-03T15:17:33;2.50;;;2.27;;
5684;SDS011;2865;53.114;9.130;2023-04-03T15:19:59;2.90;;;1.90;;
5684;SDS011;2865;53.114;9.130;2023-04-03T15:22:24;3.10;;;2.10;;
5684;SDS011;2865;53.114;9.130;2023-04-03T15:24:49;2.73;;;2.20;;
5684;SDS011;2865;53.114;9.130;2023-04-03T15:27:15;2.17;;;2.00;;
5684;SDS011;2865;53.114;9.130;2023-04-03T15:29:41;4.30;;;2.67;;
5684;SDS011;2865;53.114;9.130;2023-04-03T15:32:06;2.57;;;2.10;;
5684;SDS011;2865;53.114;9.130;2023-04-03T15:34:31;2.67;;;2.00;;
5684;SDS011;2865;53.114;9.130;2023-04-03T15:36:57;3.67;;;2.47;;
5684;SDS011;2865;53.114;9.130;2023-04-03T15:39:24;4.80;;;2.37;;
5684;SDS011;2865;53.114;9.130;2023-04-03T15:41:48;2.73;;;2.50;;
5684;SDS011;2865;53.114;9.130;2023-04-03T15:44:13;3.23;;;3.03;;
5684;SDS011;2865;53.114;9.130;2023-04-03T15:46:39;2.77;;;2.57;;
5684;SDS011;2865;53.114;9.130;2023-04-03T15:49:04;1.90;;;1.80;;
5684;SDS011;2865;53.114;9.130;2023-04-03T15:51:30;2.50;;;2.30;;
5684;SDS011;2865;53.114;9.130;2023-04-03T15:53:55;2.47;;;2.10;;
5684;SDS011;2865;53.114;9.130;2023-04-03T15:56:20;3.30;;;2.70;;
5684;SDS011;2865;53.114;9.130;2023-04-03T15:58:46;4.13;;;2.30;;
5684;SDS011;2865;53.114;9.130;2023-04-03T16:01:12;5.70;;;2.43;;